sensor_id;sensor_type;location;lat;lon;timestamp;pressure;altitude;pressure_sealevel;temperature;humidity
34297;BME280;20564;42.902;25.336;2022-09-09T00:00:47;97271.13;;;18.55;69.98
34297;BME280;20564;42.902;25.336;2022-09-09T00:03:19;97261.03;;;18.50;70.09
34297;BME280;20564;42.902;25.336;2022-09-09T00:11:19;97261.34;;;18.26;71.10
34297;BME280;20564;42.902;25.336;2022-09-09T00:13:58;97262.47;;;18.17;71.09
34297;BME280;20564;42.902;25.336;2022-09-09T00:16:32;97264.50;;;18.15;71.37
34297;BME280;20564;42.902;25.336;2022-09-09T00:19:07;97259.00;;;18.01;72.20
34297;BME280;20564;42.902;25.336;2022-09-09T00:24:52;97269.19;;;17.98;72.22
34297;BME280;20564;42.902;25.336;2022-09-09T00:27:41;97262.59;;;17.94;72.97
34297;BME280;20564;42.902;25.336;2022-09-09T00:30:23;97268.47;;;17.89;72.83
34297;BME280;20564;42.902;25.336;2022-09-09T00:32:59;97256.81;;;17.90;73.05
34297;BME280;20564;42.902;25.336;2022-09-09T00:35:37;97264.16;;;17.88;72.90
34297;BME280;20564;42.902;25.336;2022-09-09T00:38:15;97271.50;;;17.86;73.35
34297;BME280;20564;42.902;25.336;2022-09-09T00:40:49;97271.88;;;17.83;73.54
34297;BME280;20564;42.902;25.336;2022-09-09T00:43:30;97268.44;;;17.74;73.51
34297;BME280;20564;42.902;25.336;2022-09-09T00:46:06;97269.16;;;17.68;74.26
34297;BME280;20564;42.902;25.336;2022-09-09T00:49:20;97279.00;;;17.68;73.94
34297;BME280;20564;42.902;25.336;2022-09-09T00:51:55;97278.53;;;17.64;74.46
34297;BME280;20564;42.902;25.336;2022-09-09T00:54:44;97275.59;;;17.59;74.38
34297;BME280;20564;42.902;25.336;2022-09-09T00:57:23;97269.16;;;17.53;74.91
34297;BME280;20564;42.902;25.336;2022-09-09T01:00:02;97276.69;;;17.50;75.18
34297;BME280;20564;42.902;25.336;2022-09-09T01:02:39;97272.84;;;17.52;75.41
34297;BME280;20564;42.902;25.336;2022-09-09T01:05:19;97271.91;;;17.45;75.16
34297;BME280;20564;42.902;25.336;2022-09-09T01:07:49;97274.22;;;17.48;75.76
34297;BME280;20564;42.902;25.336;2022-09-09T01:10:50;97281.91;;;17.43;75.49
34297;BME280;20564;42.902;25.336;2022-09-09T01:13:29;97272.34;;;17.34;76.58
34297;BME280;20564;42.902;25.336;2022-09-09T01:15:59;97275.53;;;17.29;76.63
34297;BME280;20564;42.902;25.336;2022-09-09T01:18:32;97270.59;;;17.26;76.09
34297;BME280;20564;42.902;25.336;2022-09-09T01:21:30;97262.78;;;17.25;76.35
34297;BME280;20564;42.902;25.336;2022-09-09T01:24:20;97263.78;;;17.24;76.54
34297;BME280;20564;42.902;25.336;2022-09-09T01:26:52;97259.50;;;17.23;77.38
34297;BME280;20564;42.902;25.336;2022-09-09T01:29:22;97258.56;;;17.16;77.13
34297;BME280;20564;42.902;25.336;2022-09-09T01:31:59;97263.53;;;17.19;77.49
34297;BME280;20564;42.902;25.336;2022-09-09T01:34:39;97252.41;;;17.15;77.46
34297;BME280;20564;42.902;25.336;2022-09-09T01:37:12;97255.94;;;17.07;77.25
34297;BME280;20564;42.902;25.336;2022-09-09T01:39:42;97255.66;;;17.02;78.55
34297;BME280;20564;42.902;25.336;2022-09-09T01:42:13;97257.16;;;17.05;78.03
34297;BME280;20564;42.902;25.336;2022-09-09T01:44:42;97251.78;;;16.90;78.28
34297;BME280;20564;42.902;25.336;2022-09-09T01:47:10;97257.09;;;16.90;78.37
34297;BME280;20564;42.902;25.336;2022-09-09T01:49:37;97251.84;;;16.82;79.00
34297;BME280;20564;42.902;25.336;2022-09-09T01:52:04;97250.53;;;16.78;79.39
34297;BME280;20564;42.902;25.336;2022-09-09T01:54:33;97250.53;;;16.78;79.12
34297;BME280;20564;42.902;25.336;2022-09-09T01:57:15;97239.06;;;16.77;79.41
34297;BME280;20564;42.902;25.336;2022-09-09T02:02:32;97249.28;;;16.66;80.55
34297;BME280;20564;42.902;25.336;2022-09-09T02:05:11;97245.31;;;16.61;80.00
34297;BME280;20564;42.902;25.336;2022-09-09T02:07:49;97247.69;;;16.56;80.76
34297;BME280;20564;42.902;25.336;2022-09-09T02:10:47;97244.50;;;16.61;80.79
34297;BME280;20564;42.902;25.336;2022-09-09T02:13:19;97251.75;;;16.67;80.99
34297;BME280;20564;42.902;25.336;2022-09-09T02:16:23;97252.28;;;16.62;80.66
34297;BME280;20564;42.902;25.336;2022-09-09T02:18:57;97245.66;;;16.58;80.45
34297;BME280;20564;42.902;25.336;2022-09-09T02:21:31;97243.66;;;16.60;80.68
34297;BME280;20564;42.902;25.336;2022-09-09T02:24:02;97235.03;;;16.58;80.66
34297;BME280;20564;42.902;25.336;2022-09-09T02:26:33;97228.72;;;16.59;80.68
34297;BME280;20564;42.902;25.336;2022-09-09T02:29:03;97226.44;;;16.56;80.85
34297;BME280;20564;42.902;25.336;2022-09-09T02:31:34;97235.03;;;16.58;80.47
34297;BME280;20564;42.902;25.336;2022-09-09T02:34:06;97242.38;;;16.56;80.72
34297;BME280;20564;42.902;25.336;2022-09-09T02:36:40;97234.75;;;16.53;81.50
34297;BME280;20564;42.902;25.336;2022-09-09T02:39:10;97233.97;;;16.45;81.63
34297;BME280;20564;42.902;25.336;2022-09-09T02:41:40;97229.47;;;16.45;81.82
34297;BME280;20564;42.902;25.336;2022-09-09T02:44:16;97235.50;;;16.39;82.63
34297;BME280;20564;42.902;25.336;2022-09-09T02:52:19;97216.31;;;16.29;82.67
34297;BME280;20564;42.902;25.336;2022-09-09T02:54:50;97232.59;;;16.26;82.76
34297;BME280;20564;42.902;25.336;2022-09-09T02:57:30;97229.44;;;16.22;83.82
34297;BME280;20564;42.902;25.336;2022-09-09T02:59:59;97235.81;;;16.13;83.34
34297;BME280;20564;42.902;25.336;2022-09-09T03:02:27;97232.03;;;16.07;83.79
34297;BME280;20564;42.902;25.336;2022-09-09T03:04:54;97230.38;;;16.06;84.57
34297;BME280;20564;42.902;25.336;2022-09-09T03:07:21;97240.84;;;16.00;84.52
34297;BME280;20564;42.902;25.336;2022-09-09T03:09:52;97231.72;;;16.02;84.45
34297;BME280;20564;42.902;25.336;2022-09-09T03:12:21;97233.19;;;16.05;84.42
34297;BME280;20564;42.902;25.336;2022-09-09T03:14:53;97231.25;;;15.99;84.71
34297;BME280;20564;42.902;25.336;2022-09-09T03:17:20;97228.94;;;15.96;84.65
34297;BME280;20564;42.902;25.336;2022-09-09T03:19:47;97229.06;;;16.02;84.42
34297;BME280;20564;42.902;25.336;2022-09-09T03:22:16;97234.06;;;15.97;84.80
34297;BME280;20564;42.902;25.336;2022-09-09T03:24:43;97239.06;;;15.92;84.96
34297;BME280;20564;42.902;25.336;2022-09-09T03:27:10;97232.09;;;15.91;85.07
34297;BME280;20564;42.902;25.336;2022-09-09T03:29:37;97237.75;;;15.88;85.30
34297;BME280;20564;42.902;25.336;2022-09-09T03:32:04;97238.59;;;15.88;85.33
34297;BME280;20564;42.902;25.336;2022-09-09T03:34:31;97230.63;;;15.88;85.66
34297;BME280;20564;42.902;25.336;2022-09-09T03:36:58;97229.94;;;15.86;85.39
34297;BME280;20564;42.902;25.336;2022-09-09T03:39:25;97232.31;;;15.81;85.75
34297;BME280;20564;42.902;25.336;2022-09-09T03:41:52;97238.44;;;15.82;85.81
34297;BME280;20564;42.902;25.336;2022-09-09T03:44:19;97245.75;;;15.80;86.14
34297;BME280;20564;42.902;25.336;2022-09-09T03:46:46;97240.94;;;15.83;86.31
34297;BME280;20564;42.902;25.336;2022-09-09T03:49:13;97231.47;;;15.81;86.06
34297;BME280;20564;42.902;25.336;2022-09-09T03:51:41;97241.28;;;15.80;86.04
34297;BME280;20564;42.902;25.336;2022-09-09T03:54:08;97244.78;;;15.73;85.79
34297;BME280;20564;42.902;25.336;2022-09-09T03:56:36;97255.75;;;15.70;86.74
34297;BME280;20564;42.902;25.336;2022-09-09T03:59:04;97242.28;;;15.71;86.47
34297;BME280;20564;42.902;25.336;2022-09-09T04:01:31;97257.06;;;15.74;86.26
34297;BME280;20564;42.902;25.336;2022-09-09T04:03:58;97250.44;;;15.70;86.56
34297;BME280;20564;42.902;25.336;2022-09-09T04:06:25;97254.91;;;15.69;86.93
34297;BME280;20564;42.902;25.336;2022-09-09T04:08:52;97253.41;;;15.66;86.89
34297;BME280;20564;42.902;25.336;2022-09-09T04:11:20;97250.72;;;15.75;87.04
34297;BME280;20564;42.902;25.336;2022-09-09T04:13:47;97257.38;;;15.71;87.29
34297;BME280;20564;42.902;25.336;2022-09-09T04:16:14;97258.22;;;15.71;87.25
34297;BME280;20564;42.902;25.336;2022-09-09T04:18:42;97259.06;;;15.55;87.71
34297;BME280;20564;42.902;25.336;2022-09-09T04:21:09;97253.41;;;15.58;87.82
34297;BME280;20564;42.902;25.336;2022-09-09T04:23:38;97259.72;;;15.65;87.77
34297;BME280;20564;42.902;25.336;2022-09-09T04:26:06;97261.03;;;15.61;88.52
34297;BME280;20564;42.902;25.336;2022-09-09T04:28:34;97264.19;;;15.65;88.41
34297;BME280;20564;42.902;25.336;2022-09-09T04:31:08;97266.69;;;15.66;88.55
34297;BME280;20564;42.902;25.336;2022-09-09T04:33:36;97265.00;;;15.74;88.57
34297;BME280;20564;42.902;25.336;2022-09-09T04:36:06;97262.34;;;15.74;88.14
34297;BME280;20564;42.902;25.336;2022-09-09T04:38:33;97251.41;;;15.77;88.29
34297;BME280;20564;42.902;25.336;2022-09-09T04:41:01;97261.50;;;15.81;87.91
34297;BME280;20564;42.902;25.336;2022-09-09T04:43:28;97252.03;;;15.87;87.67
34297;BME280;20564;42.902;25.336;2022-09-09T04:45:58;97246.34;;;15.90;87.86
34297;BME280;20564;42.902;25.336;2022-09-09T04:48:26;97246.16;;;16.00;88.04
34297;BME280;20564;42.902;25.336;2022-09-09T04:50:56;97246.31;;;16.06;87.84
34297;BME280;20564;42.902;25.336;2022-09-09T04:53:23;97250.78;;;16.06;88.17
34297;BME280;20564;42.902;25.336;2022-09-09T04:56:00;97252.91;;;16.10;87.59
34297;BME280;20564;42.902;25.336;2022-09-09T04:58:29;97251.22;;;16.18;87.53
34297;BME280;20564;42.902;25.336;2022-09-09T05:01:09;97254.97;;;16.31;87.55
34297;BME280;20564;42.902;25.336;2022-09-09T05:03:36;97262.06;;;16.39;87.79
34297;BME280;20564;42.902;25.336;2022-09-09T05:06:11;97260.03;;;16.49;88.10
34297;BME280;20564;42.902;25.336;2022-09-09T05:08:55;97262.78;;;16.56;87.08
34297;BME280;20564;42.902;25.336;2022-09-09T05:11:27;97257.88;;;16.76;87.52
34297;BME280;20564;42.902;25.336;2022-09-09T05:13:55;97255.16;;;16.84;87.11
34297;BME280;20564;42.902;25.336;2022-09-09T05:16:23;97260.72;;;16.97;88.64
34297;BME280;20564;42.902;25.336;2022-09-09T05:18:51;97259.84;;;17.20;86.38
34297;BME280;20564;42.902;25.336;2022-09-09T05:21:19;97261.81;;;17.41;85.59
34297;BME280;20564;42.902;25.336;2022-09-09T05:23:47;97265.22;;;17.64;86.42
34297;BME280;20564;42.902;25.336;2022-09-09T05:26:16;97256.44;;;17.93;85.40
34297;BME280;20564;42.902;25.336;2022-09-09T05:28:45;97245.09;;;18.21;85.41
34297;BME280;20564;42.902;25.336;2022-09-09T05:31:13;97249.78;;;18.55;83.77
34297;BME280;20564;42.902;25.336;2022-09-09T05:33:43;97250.16;;;18.88;82.03
34297;BME280;20564;42.902;25.336;2022-09-09T05:36:14;97240.13;;;19.18;83.46
34297;BME280;20564;42.902;25.336;2022-09-09T05:38:43;97239.13;;;19.47;81.18
34297;BME280;20564;42.902;25.336;2022-09-09T05:41:12;97241.19;;;19.80;81.19
34297;BME280;20564;42.902;25.336;2022-09-09T05:43:43;97226.53;;;20.11;80.95
34297;BME280;20564;42.902;25.336;2022-09-09T05:46:16;97223.22;;;20.50;79.62
34297;BME280;20564;42.902;25.336;2022-09-09T05:48:45;97224.94;;;20.84;77.09
34297;BME280;20564;42.902;25.336;2022-09-09T05:51:14;97222.03;;;21.19;76.32
34297;BME280;20564;42.902;25.336;2022-09-09T05:53:45;97222.03;;;21.52;75.76
34297;BME280;20564;42.902;25.336;2022-09-09T05:56:15;97221.97;;;21.85;74.23
34297;BME280;20564;42.902;25.336;2022-09-09T05:58:43;97211.53;;;22.22;72.88
34297;BME280;20564;42.902;25.336;2022-09-09T06:01:19;97210.91;;;22.65;70.34
34297;BME280;20564;42.902;25.336;2022-09-09T06:03:48;97206.53;;;23.02;68.42
34297;BME280;20564;42.902;25.336;2022-09-09T06:06:26;97203.72;;;23.41;66.39
34297;BME280;20564;42.902;25.336;2022-09-09T06:08:56;97197.97;;;23.80;63.27
34297;BME280;20564;42.902;25.336;2022-09-09T06:11:27;97192.56;;;24.17;60.01
34297;BME280;20564;42.902;25.336;2022-09-09T06:13:54;97181.25;;;24.57;55.50
34297;BME280;20564;42.902;25.336;2022-09-09T06:16:23;97184.03;;;24.92;53.10
34297;BME280;20564;42.902;25.336;2022-09-09T06:18:52;97190.91;;;25.30;52.55
34297;BME280;20564;42.902;25.336;2022-09-09T06:21:22;97184.81;;;25.58;52.97
34297;BME280;20564;42.902;25.336;2022-09-09T06:23:50;97185.50;;;25.89;51.27
34297;BME280;20564;42.902;25.336;2022-09-09T06:26:28;97185.03;;;26.20;49.48
34297;BME280;20564;42.902;25.336;2022-09-09T06:28:57;97172.84;;;26.58;47.12
34297;BME280;20564;42.902;25.336;2022-09-09T06:31:26;97174.84;;;26.97;45.41
34297;BME280;20564;42.902;25.336;2022-09-09T06:33:58;97174.63;;;27.32;44.49
34297;BME280;20564;42.902;25.336;2022-09-09T06:36:32;97175.69;;;27.70;43.64
34297;BME280;20564;42.902;25.336;2022-09-09T06:39:00;97188.03;;;28.04;42.79
34297;BME280;20564;42.902;25.336;2022-09-09T06:41:30;97174.50;;;28.26;42.63
34297;BME280;20564;42.902;25.336;2022-09-09T06:43:57;97169.06;;;28.48;41.78
34297;BME280;20564;42.902;25.336;2022-09-09T06:46:26;97168.03;;;28.49;37.47
34297;BME280;20564;42.902;25.336;2022-09-09T06:48:57;97171.28;;;28.51;38.31
34297;BME280;20564;42.902;25.336;2022-09-09T06:51:30;97170.38;;;28.68;36.82
34297;BME280;20564;42.902;25.336;2022-09-09T06:53:59;97166.81;;;28.94;37.60
34297;BME280;20564;42.902;25.336;2022-09-09T06:58:59;97157.59;;;29.27;36.28
34297;BME280;20564;42.902;25.336;2022-09-09T07:01:32;97157.38;;;29.34;35.90
34297;BME280;20564;42.902;25.336;2022-09-09T07:04:00;97159.88;;;29.41;35.08
34297;BME280;20564;42.902;25.336;2022-09-09T07:06:30;97167.19;;;29.40;35.11
34297;BME280;20564;42.902;25.336;2022-09-09T07:09:00;97166.81;;;29.69;35.09
34297;BME280;20564;42.902;25.336;2022-09-09T07:11:30;97171.84;;;29.97;34.15
34297;BME280;20564;42.902;25.336;2022-09-09T07:13:59;97165.19;;;30.20;34.13
34297;BME280;20564;42.902;25.336;2022-09-09T07:16:27;97161.69;;;30.40;33.86
34297;BME280;20564;42.902;25.336;2022-09-09T07:18:54;97164.44;;;30.50;32.59
34297;BME280;20564;42.902;25.336;2022-09-09T07:21:26;97143.28;;;30.68;32.38
34297;BME280;20564;42.902;25.336;2022-09-09T07:23:54;97153.56;;;30.56;32.25
34297;BME280;20564;42.902;25.336;2022-09-09T07:26:26;97157.41;;;30.70;32.54
34297;BME280;20564;42.902;25.336;2022-09-09T07:28:54;97146.59;;;30.90;32.57
34297;BME280;20564;42.902;25.336;2022-09-09T07:31:31;97149.28;;;30.95;31.57
34297;BME280;20564;42.902;25.336;2022-09-09T07:33:59;97147.13;;;30.87;31.62
34297;BME280;20564;42.902;25.336;2022-09-09T07:36:29;97165.56;;;30.75;31.47
34297;BME280;20564;42.902;25.336;2022-09-09T07:39:12;97169.88;;;30.71;31.55
34297;BME280;20564;42.902;25.336;2022-09-09T07:41:42;97171.84;;;30.76;32.11
34297;BME280;20564;42.902;25.336;2022-09-09T07:44:20;97172.91;;;30.74;31.83
34297;BME280;20564;42.902;25.336;2022-09-09T07:46:51;97165.03;;;30.68;31.97
34297;BME280;20564;42.902;25.336;2022-09-09T07:49:19;97169.94;;;30.81;31.83
34297;BME280;20564;42.902;25.336;2022-09-09T07:51:58;97187.06;;;30.82;31.42
34297;BME280;20564;42.902;25.336;2022-09-09T07:54:28;97176.22;;;30.87;31.78
34297;BME280;20564;42.902;25.336;2022-09-09T07:56:55;97185.19;;;30.97;31.46
34297;BME280;20564;42.902;25.336;2022-09-09T07:59:22;97177.03;;;31.03;31.46
34297;BME280;20564;42.902;25.336;2022-09-09T08:01:51;97182.16;;;30.89;31.40
34297;BME280;20564;42.902;25.336;2022-09-09T08:04:23;97178.13;;;31.02;31.33
34297;BME280;20564;42.902;25.336;2022-09-09T08:06:53;97184.63;;;31.16;31.07
34297;BME280;20564;42.902;25.336;2022-09-09T08:09:21;97181.91;;;31.16;31.07
34297;BME280;20564;42.902;25.336;2022-09-09T08:11:51;97178.66;;;31.24;31.38
34297;BME280;20564;42.902;25.336;2022-09-09T08:14:19;97169.69;;;31.34;31.49
34297;BME280;20564;42.902;25.336;2022-09-09T08:16:48;97165.59;;;31.46;31.13
34297;BME280;20564;42.902;25.336;2022-09-09T08:19:16;97167.19;;;31.58;31.17
34297;BME280;20564;42.902;25.336;2022-09-09T08:21:44;97157.41;;;31.57;31.24
34297;BME280;20564;42.902;25.336;2022-09-09T08:24:12;97153.00;;;31.71;30.43
34297;BME280;20564;42.902;25.336;2022-09-09T08:26:43;97152.19;;;31.65;30.93
34297;BME280;20564;42.902;25.336;2022-09-09T08:29:11;97156.56;;;31.61;30.81
34297;BME280;20564;42.902;25.336;2022-09-09T08:31:44;97156.22;;;31.83;30.69
34297;BME280;20564;42.902;25.336;2022-09-09T08:34:11;97150.78;;;31.83;30.70
34297;BME280;20564;42.902;25.336;2022-09-09T08:36:44;97147.53;;;31.76;30.48
34297;BME280;20564;42.902;25.336;2022-09-09T08:39:14;97145.44;;;31.48;30.77
34297;BME280;20564;42.902;25.336;2022-09-09T08:55:22;97137.31;;;31.32;31.05
34297;BME280;20564;42.902;25.336;2022-09-09T08:57:54;97141.66;;;31.28;30.49
34297;BME280;20564;42.902;25.336;2022-09-09T09:00:23;97137.31;;;31.37;31.13
34297;BME280;20564;42.902;25.336;2022-09-09T09:03:06;97144.84;;;31.71;30.95
34297;BME280;20564;42.902;25.336;2022-09-09T09:09:08;97139.66;;;31.75;30.70
34297;BME280;20564;42.902;25.336;2022-09-09T09:11:45;97148.63;;;31.70;30.75
34297;BME280;20564;42.902;25.336;2022-09-09T09:14:22;97146.47;;;31.72;30.83
34297;BME280;20564;42.902;25.336;2022-09-09T09:17:06;97134.25;;;31.64;30.63
34297;BME280;20564;42.902;25.336;2022-09-09T09:19:35;97133.19;;;31.50;30.98
34297;BME280;20564;42.902;25.336;2022-09-09T09:30:21;97134.22;;;31.75;30.45
34297;BME280;20564;42.902;25.336;2022-09-09T09:35:50;97138.34;;;31.67;30.74
34297;BME280;20564;42.902;25.336;2022-09-09T09:38:18;97128.78;;;31.75;30.81
34297;BME280;20564;42.902;25.336;2022-09-09T09:41:06;97124.09;;;31.90;31.21
34297;BME280;20564;42.902;25.336;2022-09-09T09:43:35;97121.94;;;31.87;30.08
34297;BME280;20564;42.902;25.336;2022-09-09T09:46:03;97128.47;;;31.86;30.73
34297;BME280;20564;42.902;25.336;2022-09-09T09:48:43;97123.59;;;31.73;30.57
34297;BME280;20564;42.902;25.336;2022-09-09T09:51:14;97127.38;;;31.87;30.57
34297;BME280;20564;42.902;25.336;2022-09-09T09:53:45;97122.56;;;31.64;30.71
34297;BME280;20564;42.902;25.336;2022-09-09T09:56:16;97116.09;;;31.39;31.58
34297;BME280;20564;42.902;25.336;2022-09-09T09:58:54;97111.16;;;31.57;31.81
34297;BME280;20564;42.902;25.336;2022-09-09T10:01:30;97115.16;;;31.69;31.03
34297;BME280;20564;42.902;25.336;2022-09-09T10:04:15;97112.72;;;31.73;30.99
34297;BME280;20564;42.902;25.336;2022-09-09T10:06:46;97113.53;;;31.74;31.32
34297;BME280;20564;42.902;25.336;2022-09-09T10:19:31;97124.81;;;31.41;31.99
34297;BME280;20564;42.902;25.336;2022-09-09T10:22:25;97121.25;;;31.36;32.04
34297;BME280;20564;42.902;25.336;2022-09-09T10:27:46;97123.72;;;31.37;32.04
34297;BME280;20564;42.902;25.336;2022-09-09T10:33:28;97120.41;;;31.51;31.72
34297;BME280;20564;42.902;25.336;2022-09-09T10:36:46;97114.72;;;31.37;31.61
34297;BME280;20564;42.902;25.336;2022-09-09T10:47:04;97105.97;;;31.60;31.75
34297;BME280;20564;42.902;25.336;2022-09-09T10:49:58;97115.50;;;31.58;32.19
34297;BME280;20564;42.902;25.336;2022-09-09T10:55:35;97105.09;;;31.70;32.01
34297;BME280;20564;42.902;25.336;2022-09-09T10:58:04;97112.06;;;32.02;31.93
34297;BME280;20564;42.902;25.336;2022-09-09T11:00:47;97111.31;;;31.81;32.21
34297;BME280;20564;42.902;25.336;2022-09-09T11:03:26;97106.94;;;31.85;32.14
34297;BME280;20564;42.902;25.336;2022-09-09T11:06:05;97103.94;;;31.91;31.77
34297;BME280;20564;42.902;25.336;2022-09-09T11:08:38;97106.06;;;32.05;31.89
34297;BME280;20564;42.902;25.336;2022-09-09T11:11:27;97114.75;;;32.07;31.67
34297;BME280;20564;42.902;25.336;2022-09-09T11:16:58;97103.94;;;31.91;31.92
34297;BME280;20564;42.902;25.336;2022-09-09T11:19:43;97105.00;;;31.96;32.09
34297;BME280;20564;42.902;25.336;2022-09-09T11:22:24;97102.25;;;32.11;31.70
34297;BME280;20564;42.902;25.336;2022-09-09T11:25:01;97098.88;;;32.24;32.18
34297;BME280;20564;42.902;25.336;2022-09-09T11:41:34;97078.25;;;32.13;32.46
34297;BME280;20564;42.902;25.336;2022-09-09T11:44:21;97073.00;;;32.27;31.92
34297;BME280;20564;42.902;25.336;2022-09-09T11:46:53;97073.50;;;32.29;32.65
34297;BME280;20564;42.902;25.336;2022-09-09T11:51:55;97078.13;;;32.28;32.79
34297;BME280;20564;42.902;25.336;2022-09-09T11:54:30;97071.00;;;32.42;31.71
34297;BME280;20564;42.902;25.336;2022-09-09T11:56:58;97064.97;;;32.46;32.15
34297;BME280;20564;42.902;25.336;2022-09-09T11:59:27;97074.25;;;32.45;32.62
34297;BME280;20564;42.902;25.336;2022-09-09T12:02:16;97059.88;;;32.68;32.44
34297;BME280;20564;42.902;25.336;2022-09-09T12:05:07;97064.13;;;32.84;31.69
34297;BME280;20564;42.902;25.336;2022-09-09T12:07:39;97060.94;;;32.72;31.75
34297;BME280;20564;42.902;25.336;2022-09-09T12:10:38;97055.88;;;32.60;32.11
34297;BME280;20564;42.902;25.336;2022-09-09T12:13:24;97069.59;;;32.79;32.10
34297;BME280;20564;42.902;25.336;2022-09-09T12:15:54;97069.25;;;32.91;32.15
34297;BME280;20564;42.902;25.336;2022-09-09T12:18:33;97062.63;;;32.68;31.89
34297;BME280;20564;42.902;25.336;2022-09-09T12:23:49;97051.63;;;32.05;33.27
34297;BME280;20564;42.902;25.336;2022-09-09T12:31:46;97053.63;;;31.79;33.79
34297;BME280;20564;42.902;25.336;2022-09-09T12:35:04;97053.19;;;31.51;34.40
34297;BME280;20564;42.902;25.336;2022-09-09T12:40:02;97037.53;;;31.07;35.25
34297;BME280;20564;42.902;25.336;2022-09-09T12:42:31;97044.38;;;30.94;35.29
34297;BME280;20564;42.902;25.336;2022-09-09T12:45:19;97032.16;;;30.82;35.68
34297;BME280;20564;42.902;25.336;2022-09-09T12:47:51;97036.50;;;30.78;36.19
34297;BME280;20564;42.902;25.336;2022-09-09T12:50:32;97032.41;;;30.60;36.81
34297;BME280;20564;42.902;25.336;2022-09-09T12:53:12;97032.69;;;30.38;36.63
34297;BME280;20564;42.902;25.336;2022-09-09T12:56:03;97033.50;;;30.23;37.66
34297;BME280;20564;42.902;25.336;2022-09-09T12:58:31;97027.47;;;30.11;37.66
34297;BME280;20564;42.902;25.336;2022-09-09T13:01:03;97029.38;;;30.10;37.74
34297;BME280;20564;42.902;25.336;2022-09-09T13:03:42;97028.03;;;30.02;37.65
34297;BME280;20564;42.902;25.336;2022-09-09T13:06:13;97041.03;;;30.00;37.98
34297;BME280;20564;42.902;25.336;2022-09-09T13:08:40;97033.97;;;29.89;38.80
34297;BME280;20564;42.902;25.336;2022-09-09T13:11:12;97032.34;;;29.88;39.06
34297;BME280;20564;42.902;25.336;2022-09-09T13:13:50;97036.09;;;29.77;39.14
34297;BME280;20564;42.902;25.336;2022-09-09T13:16:27;97033.28;;;29.51;39.97
34297;BME280;20564;42.902;25.336;2022-09-09T13:19:15;97034.31;;;29.45;38.75
34297;BME280;20564;42.902;25.336;2022-09-09T13:21:43;97029.41;;;29.42;39.70
34297;BME280;20564;42.902;25.336;2022-09-09T13:24:40;97024.78;;;29.33;39.31
34297;BME280;20564;42.902;25.336;2022-09-09T13:27:34;97028.66;;;29.52;39.38
34297;BME280;20564;42.902;25.336;2022-09-09T13:33:28;97025.22;;;29.67;39.64
34297;BME280;20564;42.902;25.336;2022-09-09T13:36:05;97024.41;;;29.66;39.69
34297;BME280;20564;42.902;25.336;2022-09-09T13:38:37;97015.41;;;29.61;38.97
34297;BME280;20564;42.902;25.336;2022-09-09T13:41:07;97018.69;;;29.63;39.51
34297;BME280;20564;42.902;25.336;2022-09-09T13:43:45;97010.56;;;29.63;39.62
34297;BME280;20564;42.902;25.336;2022-09-09T13:54:09;97018.16;;;29.76;39.80
34297;BME280;20564;42.902;25.336;2022-09-09T13:56:38;97022.53;;;29.82;38.82
34297;BME280;20564;42.902;25.336;2022-09-09T13:59:09;97017.91;;;29.77;39.66
34297;BME280;20564;42.902;25.336;2022-09-09T14:01:37;97014.97;;;29.84;40.00
34297;BME280;20564;42.902;25.336;2022-09-09T14:04:04;97012.28;;;29.99;39.46
34297;BME280;20564;42.902;25.336;2022-09-09T14:06:36;97010.66;;;30.14;39.01
34297;BME280;20564;42.902;25.336;2022-09-09T14:09:07;97011.19;;;30.16;38.83
34297;BME280;20564;42.902;25.336;2022-09-09T14:11:35;97018.50;;;30.05;38.79
34297;BME280;20564;42.902;25.336;2022-09-09T14:14:02;97011.16;;;29.85;39.15
34297;BME280;20564;42.902;25.336;2022-09-09T14:16:29;97013.31;;;29.83;39.85
34297;BME280;20564;42.902;25.336;2022-09-09T14:18:59;97010.06;;;29.81;39.97
34297;BME280;20564;42.902;25.336;2022-09-09T14:21:27;97015.19;;;29.72;40.25
34297;BME280;20564;42.902;25.336;2022-09-09T14:23:54;97020.34;;;29.74;39.80
34297;BME280;20564;42.902;25.336;2022-09-09T14:26:22;97018.97;;;29.66;40.10
34297;BME280;20564;42.902;25.336;2022-09-09T14:28:50;97020.31;;;29.64;40.44
34297;BME280;20564;42.902;25.336;2022-09-09T14:31:23;97017.59;;;29.59;40.54
34297;BME280;20564;42.902;25.336;2022-09-09T14:33:51;97024.03;;;29.47;40.48
34297;BME280;20564;42.902;25.336;2022-09-09T14:36:18;97021.84;;;29.44;40.74
34297;BME280;20564;42.902;25.336;2022-09-09T14:38:45;97025.63;;;29.43;40.54
34297;BME280;20564;42.902;25.336;2022-09-09T14:41:15;97020.19;;;29.38;40.27
34297;BME280;20564;42.902;25.336;2022-09-09T14:43:46;97020.66;;;29.25;41.02
34297;BME280;20564;42.902;25.336;2022-09-09T14:46:15;97028.47;;;29.11;41.29
34297;BME280;20564;42.902;25.336;2022-09-09T14:48:43;97025.94;;;28.99;41.66
34297;BME280;20564;42.902;25.336;2022-09-09T14:51:23;97028.03;;;28.87;41.35
34297;BME280;20564;42.902;25.336;2022-09-09T14:53:52;97026.91;;;28.78;42.37
34297;BME280;20564;42.902;25.336;2022-09-09T14:56:22;97029.06;;;28.81;41.81
34297;BME280;20564;42.902;25.336;2022-09-09T14:58:53;97039.06;;;28.80;42.07
34297;BME280;20564;42.902;25.336;2022-09-09T15:01:23;97039.91;;;28.81;42.32
34297;BME280;20564;42.902;25.336;2022-09-09T15:03:59;97042.06;;;28.79;41.34
34297;BME280;20564;42.902;25.336;2022-09-09T15:06:28;97040.38;;;28.73;42.25
34297;BME280;20564;42.902;25.336;2022-09-09T15:08:56;97047.63;;;28.62;42.16
34297;BME280;20564;42.902;25.336;2022-09-09T15:11:29;97049.47;;;28.56;42.13
34297;BME280;20564;42.902;25.336;2022-09-09T15:13:57;97053.78;;;28.52;41.99
34297;BME280;20564;42.902;25.336;2022-09-09T15:16:27;97047.47;;;28.42;41.83